Time;durP1;ratioP1;P1;durP2;ratioP2;P2;SDS_P1;SDS_P2;PMS_P1;PMS_P2;Temp;Humidity;BMP_temperature;BMP_pressure;BME280_temperature;BME280_humidity;BME280_pressure;Samples;Min_cycle;Max_cycle;Signal;HPM_P1;HPM_P2
2022/07/23 00:00:39;;;;;;;4.20;2.30;;;14.50;99.90;;;;;;5057746;28;20095;-79
2022/07/23 00:03:06;;;;;;;3.03;2.03;;;14.40;99.90;;;;;;5057577;28;20525;-79
2022/07/23 00:05:31;;;;;;;3.65;2.28;;;14.40;99.90;;;;;;5091794;28;20416;-79
2022/07/23 00:07:57;;;;;;;4.78;2.30;;;14.30;99.90;;;;;;5073788;28;20036;-79
2022/07/23 00:10:23;;;;;;;4.22;1.88;;;14.20;99.90;;;;;;5073658;28;20048;-79
2022/07/23 00:12:48;;;;;;;5.30;2.30;;;14.20;99.90;;;;;;5073681;28;20083;-79
2022/07/23 00:15:14;;;;;;;4.47;2.40;;;14.10;99.90;;;;;;5073858;28;20036;-79
2022/07/23 00:17:39;;;;;;;5.05;2.85;;;14.10;99.90;;;;;;5073730;28;20048;-79
2022/07/23 00:20:06;;;;;;;5.32;2.03;;;14.10;99.90;;;;;;5056563;28;20044;-79
2022/07/23 00:22:31;;;;;;;2.45;2.00;;;14.00;99.90;;;;;;5091774;28;20101;-79
2022/07/23 00:24:57;;;;;;;3.78;2.35;;;14.00;99.90;;;;;;5056750;28;20040;-79
2022/07/23 00:27:23;;;;;;;4.50;2.13;;;14.00;99.90;;;;;;5073570;28;20046;-79
2022/07/23 00:29:48;;;;;;;4.80;2.58;;;14.00;99.90;;;;;;5056510;28;20750;-79
2022/07/23 00:32:14;;;;;;;3.78;2.50;;;13.90;99.90;;;;;;5073616;28;20101;-79
2022/07/23 00:34:40;;;;;;;4.35;2.20;;;13.90;99.90;;;;;;5056736;28;20048;-79
2022/07/23 00:37:05;;;;;;;5.50;2.35;;;13.90;99.90;;;;;;5091494;28;20044;-79
2022/07/23 00:39:31;;;;;;;4.93;2.47;;;13.90;99.90;;;;;;5072867;28;20379;-78
2022/07/23 00:41:57;;;;;;;4.18;2.53;;;13.80;99.90;;;;;;5073455;28;20040;-79
2022/07/23 00:44:25;;;;;;;3.22;2.50;;;13.80;99.90;;;;;;5073345;28;20051;-79
2022/07/23 00:46:56;;;;;;;6.57;3.03;;;13.70;99.90;;;;;;5073510;28;20040;-79
2022/07/23 00:49:28;;;;;;;5.27;2.60;;;13.70;99.90;;;;;;5072638;28;20044;-79
2022/07/23 00:51:55;;;;;;;2.50;2.25;;;13.70;99.90;;;;;;5056044;28;20101;-79
2022/07/23 00:54:23;;;;;;;3.25;2.17;;;13.60;99.90;;;;;;5056570;28;20043;-79
2022/07/23 00:56:49;;;;;;;4.40;2.72;;;13.60;99.90;;;;;;5072941;28;20050;-79
2022/07/23 00:59:15;;;;;;;3.53;2.33;;;13.50;99.90;;;;;;5056579;28;20044;-79
2022/07/23 01:01:43;;;;;;;4.80;2.55;;;13.60;99.90;;;;;;5073242;28;20047;-79
2022/07/23 01:04:09;;;;;;;5.22;2.53;;;13.50;99.90;;;;;;5073660;28;20044;-79
2022/07/23 01:06:37;;;;;;;4.13;2.55;;;13.50;99.90;;;;;;5056139;28;20141;-79
2022/07/23 01:09:07;;;;;;;3.63;2.33;;;13.40;99.90;;;;;;5056595;28;20048;-79
2022/07/23 01:11:34;;;;;;;3.72;2.05;;;13.40;99.90;;;;;;5072550;28;20040;-79
2022/07/23 01:14:11;;;;;;;4.35;2.33;;;13.30;99.90;;;;;;5073162;28;20040;-79
2022/07/23 01:16:37;;;;;;;4.53;2.22;;;13.30;99.90;;;;;;5073248;28;20486;-79
2022/07/23 01:19:06;;;;;;;4.35;2.95;;;13.30;99.90;;;;;;5073369;28;20050;-79
2022/07/23 01:21:34;;;;;;;4.10;2.00;;;13.20;99.90;;;;;;5072806;28;20075;-78
2022/07/23 01:23:59;;;;;;;3.65;2.05;;;13.20;99.90;;;;;;5072850;28;20503;-79
2022/07/23 01:26:25;;;;;;;3.53;2.03;;;13.30;99.90;;;;;;5073011;28;20085;-79
2022/07/23 01:28:50;;;;;;;3.47;2.45;;;13.20;99.90;;;;;;5072630;28;20102;-79
2022/07/23 01:31:17;;;;;;;6.18;2.28;;;13.20;99.90;;;;;;5072588;28;20049;-78
2022/07/23 01:33:43;;;;;;;5.05;2.30;;;13.10;99.90;;;;;;5056169;28;20066;-79
2022/07/23 01:36:09;;;;;;;5.22;2.40;;;13.20;99.90;;;;;;5073052;28;20035;-79
2022/07/23 01:38:34;;;;;;;4.50;2.30;;;13.10;99.90;;;;;;5055851;28;20040;-79
2022/07/23 01:41:00;;;;;;;6.25;2.67;;;13.00;99.90;;;;;;5072713;28;20047;-79
2022/07/23 01:43:26;;;;;;;3.90;2.45;;;12.90;99.90;;;;;;5055816;28;20031;-79
2022/07/23 01:45:51;;;;;;;4.25;2.30;;;12.90;99.90;;;;;;5073142;28;20144;-79
2022/07/23 01:48:17;;;;;;;3.90;2.00;;;12.90;99.90;;;;;;5055976;28;20071;-79
2022/07/23 01:50:42;;;;;;;3.75;2.53;;;12.80;99.90;;;;;;5072509;28;20040;-79
2022/07/23 01:53:08;;;;;;;5.28;2.60;;;12.70;99.90;;;;;;5072599;28;20550;-79
2022/07/23 01:55:34;;;;;;;7.93;3.28;;;12.80;99.90;;;;;;5072813;28;20086;-79
2022/07/23 01:57:59;;;;;;;3.67;2.25;;;12.70;99.90;;;;;;5056073;28;20040;-79
2022/07/23 02:00:25;;;;;;;5.13;2.70;;;12.60;99.90;;;;;;5090343;28;20110;-79
2022/07/23 02:02:50;;;;;;;5.18;2.40;;;12.60;99.90;;;;;;5092941;28;20081;-79
2022/07/23 02:05:16;;;;;;;4.88;2.60;;;12.70;99.90;;;;;;5076297;28;20503;-79
2022/07/23 02:07:42;;;;;;;5.07;2.92;;;12.70;99.90;;;;;;5076023;28;20039;-79
2022/07/23 02:10:08;;;;;;;7.45;2.63;;;12.70;99.90;;;;;;5075942;28;20087;-79
2022/07/23 02:12:34;;;;;;;3.92;2.70;;;12.60;99.90;;;;;;5076040;28;20074;-79
2022/07/23 02:14:59;;;;;;;4.38;2.40;;;12.60;99.90;;;;;;5059855;28;20040;-79
2022/07/23 02:17:25;;;;;;;4.25;2.70;;;12.70;99.90;;;;;;5093700;28;20044;-78
2022/07/23 02:19:50;;;;;;;3.97;2.40;;;12.60;99.90;;;;;;5092832;28;20087;-78
2022/07/23 02:22:16;;;;;;;4.60;2.33;;;12.50;99.90;;;;;;5101960;28;20036;-78
2022/07/23 02:24:41;;;;;;;3.15;2.78;;;12.60;99.90;;;;;;5091765;28;20101;-78
2022/07/23 02:27:07;;;;;;;6.95;2.63;;;12.50;99.90;;;;;;5058570;28;20105;-78
2022/07/23 02:29:33;;;;;;;4.75;2.88;;;12.50;99.90;;;;;;5058465;28;20155;-78
2022/07/23 02:31:58;;;;;;;6.32;3.30;;;12.50;99.90;;;;;;5058595;28;20411;-78
2022/07/23 02:34:24;;;;;;;4.18;2.60;;;12.40;99.90;;;;;;5075309;28;20040;-78
2022/07/23 02:36:49;;;;;;;3.90;2.55;;;12.40;99.90;;;;;;5074732;28;20039;-78
2022/07/23 02:39:15;;;;;;;5.00;3.00;;;12.40;99.90;;;;;;5058124;28;20101;-78
2022/07/23 02:41:41;;;;;;;5.50;3.25;;;12.40;99.90;;;;;;5092740;28;20450;-78
2022/07/23 02:44:06;;;;;;;5.05;2.90;;;12.40;99.90;;;;;;5093322;28;20120;-78
2022/07/23 02:46:32;;;;;;;5.57;2.50;;;12.40;99.90;;;;;;5058661;28;20437;-78
2022/07/23 02:48:57;;;;;;;5.32;2.78;;;12.40;99.90;;;;;;5075177;28;20093;-78
2022/07/23 02:51:23;;;;;;;3.35;2.45;;;12.30;99.90;;;;;;5058239;28;20052;-78
2022/07/23 02:53:49;;;;;;;6.72;2.42;;;12.30;99.90;;;;;;5074733;28;20040;-78
2022/07/23 02:56:14;;;;;;;5.22;3.05;;;12.20;99.90;;;;;;5092988;28;20092;-78
2022/07/23 02:58:40;;;;;;;5.45;2.55;;;12.30;99.90;;;;;;5093049;28;20123;-78
2022/07/23 03:01:05;;;;;;;7.25;2.67;;;12.30;99.90;;;;;;5092195;28;20457;-78
2022/07/23 03:03:31;;;;;;;6.60;2.60;;;12.20;99.90;;;;;;5092757;28;20040;-78
2022/07/23 03:05:57;;;;;;;5.50;2.47;;;12.10;99.90;;;;;;5092863;28;20554;-78
2022/07/23 03:08:22;;;;;;;4.88;3.45;;;12.20;99.90;;;;;;5075226;28;20162;-78
2022/07/23 03:10:48;;;;;;;3.97;2.63;;;12.10;99.90;;;;;;5092420;28;20170;-78
2022/07/23 03:13:13;;;;;;;3.78;2.67;;;12.10;99.90;;;;;;5074097;28;20078;-78
2022/07/23 03:15:39;;;;;;;4.40;2.90;;;12.00;99.90;;;;;;5074226;28;20105;-78
2022/07/23 03:18:05;;;;;;;3.67;2.75;;;12.10;99.90;;;;;;5074479;28;20051;-78
2022/07/23 03:20:30;;;;;;;4.03;2.45;;;12.10;99.90;;;;;;5057325;28;20039;-78
2022/07/23 03:22:56;;;;;;;10.25;2.72;;;12.10;99.90;;;;;;5074926;28;20040;-78
2022/07/23 03:25:22;;;;;;;4.20;2.83;;;12.10;99.90;;;;;;5074442;28;20032;-78
2022/07/23 03:27:47;;;;;;;4.22;2.75;;;12.10;99.90;;;;;;5074133;28;20036;-78
2022/07/23 03:30:13;;;;;;;5.00;2.40;;;12.20;99.90;;;;;;5073780;28;20047;-78
2022/07/23 03:32:39;;;;;;;3.65;1.80;;;12.00;99.90;;;;;;5074084;28;20071;-78
2022/07/23 03:35:05;;;;;;;3.95;2.03;;;12.10;99.90;;;;;;5073783;28;20044;-78
2022/07/23 03:37:30;;;;;;;10.63;2.53;;;12.00;99.90;;;;;;5073935;28;20449;-78
2022/07/23 03:39:56;;;;;;;3.42;2.15;;;12.00;99.90;;;;;;5057440;28;20032;-78
2022/07/23 03:42:21;;;;;;;2.97;1.98;;;12.10;99.90;;;;;;5057505;28;20040;-78
2022/07/23 03:44:47;;;;;;;3.45;1.90;;;11.90;99.90;;;;;;5057623;28;20114;-78
2022/07/23 03:47:13;;;;;;;2.53;1.85;;;11.90;99.90;;;;;;5074031;28;20050;-78
2022/07/23 03:49:38;;;;;;;2.80;2.05;;;11.90;99.90;;;;;;5091351;28;20046;-78
2022/07/23 03:52:04;;;;;;;3.00;2.15;;;11.90;99.90;;;;;;5057270;28;20124;-78
2022/07/23 03:54:30;;;;;;;5.35;2.42;;;11.80;99.90;;;;;;5073954;28;20113;-78
2022/07/23 03:56:56;;;;;;;2.70;2.00;;;11.80;99.90;;;;;;5074107;28;20093;-78
2022/07/23 03:59:21;;;;;;;3.75;2.17;;;11.80;99.90;;;;;;5073629;28;20040;-78
2022/07/23 04:01:47;;;;;;;3.47;1.90;;;11.80;99.90;;;;;;5057077;28;20048;-78
2022/07/23 04:04:13;;;;;;;3.15;2.10;;;11.90;99.90;;;;;;5091614;28;20376;-78
2022/07/23 04:06:38;;;;;;;5.07;2.28;;;11.80;99.90;;;;;;5091397;28;20040;-78
2022/07/23 04:09:04;;;;;;;4.78;2.22;;;11.80;99.90;;;;;;5091788;28;20097;-78
2022/07/23 04:11:30;;;;;;;5.15;2.35;;;11.80;99.90;;;;;;5073257;28;20051;-78
2022/07/23 04:13:55;;;;;;;2.65;2.05;;;12.00;99.90;;;;;;5073264;28;20384;-78
2022/07/23 04:16:21;;;;;;;3.95;2.28;;;11.80;99.90;;;;;;5091494;28;20383;-78
2022/07/23 04:18:47;;;;;;;3.80;2.38;;;11.80;99.90;;;;;;5056938;28;20064;-78
2022/07/23 04:21:12;;;;;;;3.80;2.00;;;11.90;99.90;;;;;;5073045;28;20050;-78
2022/07/23 04:23:38;;;;;;;2.30;1.70;;;11.90;99.90;;;;;;5072956;28;20036;-78
2022/07/23 04:26:04;;;;;;;3.33;1.98;;;11.80;99.90;;;;;;5072869;28;20040;-78
2022/07/23 04:28:29;;;;;;;3.47;2.15;;;11.90;99.90;;;;;;5073009;28;20036;-78
2022/07/23 04:30:59;;;;;;;4.32;2.08;;;11.90;99.90;;;;;;5056268;28;20044;-78
2022/07/23 04:33:24;;;;;;;2.75;1.98;;;11.90;99.90;;;;;;5056341;28;20036;-78
2022/07/23 04:35:50;;;;;;;3.60;2.40;;;12.00;99.90;;;;;;5073363;28;20065;-78
2022/07/23 04:38:15;;;;;;;4.10;2.20;;;11.90;99.90;;;;;;5073040;28;20044;-78
2022/07/23 04:40:41;;;;;;;3.65;2.63;;;12.00;99.90;;;;;;5072755;28;20123;-78
2022/07/23 04:43:07;;;;;;;2.83;2.05;;;12.10;99.90;;;;;;5072884;28;20031;-78
2022/07/23 04:45:32;;;;;;;7.18;3.10;;;12.20;99.90;;;;;;5072939;28;20047;-78
2022/07/23 04:47:58;;;;;;;3.15;2.38;;;12.20;99.90;;;;;;5056174;28;20072;-78
2022/07/23 04:50:24;;;;;;;3.60;2.40;;;12.20;99.90;;;;;;5090712;28;20131;-78
2022/07/23 04:52:50;;;;;;;3.70;1.75;;;12.40;99.90;;;;;;5073273;28;20073;-78
2022/07/23 04:55:16;;;;;;;3.47;2.30;;;12.40;99.90;;;;;;5091452;28;20044;-78
2022/07/23 04:57:42;;;;;;;4.40;2.30;;;12.40;99.90;;;;;;5072915;28;20513;-78
2022/07/23 05:00:08;;;;;;;3.38;2.15;;;12.50;99.90;;;;;;5072259;28;20051;-79
2022/07/23 05:02:34;;;;;;;5.88;2.90;;;12.50;99.90;;;;;;5056623;28;20551;-79
2022/07/23 05:05:00;;;;;;;6.45;3.35;;;12.60;99.90;;;;;;5073090;28;20126;-81
2022/07/23 05:07:25;;;;;;;3.83;2.60;;;12.70;99.90;;;;;;5057562;28;20043;-78
2022/07/23 05:09:51;;;;;;;9.02;2.75;;;12.90;99.90;;;;;;5056331;28;20119;-81
2022/07/23 05:12:16;;;;;;;5.70;2.80;;;13.20;99.90;;;;;;5073390;28;20040;-81
2022/07/23 05:14:42;;;;;;;4.30;3.03;;;13.60;99.90;;;;;;5058104;28;20051;-80
2022/07/23 05:17:08;;;;;;;8.50;2.50;;;13.90;99.90;;;;;;5073585;28;20082;-81
2022/07/23 05:19:34;;;;;;;4.78;2.83;;;14.40;99.90;;;;;;5056136;28;20044;-80
2022/07/23 05:22:00;;;;;;;4.20;2.70;;;15.00;99.90;;;;;;5072950;28;20035;-81
2022/07/23 05:24:26;;;;;;;8.75;3.63;;;15.50;99.90;;;;;;5073491;28;20487;-81
2022/07/23 05:26:52;;;;;;;4.57;2.72;;;16.00;99.90;;;;;;5073420;28;20044;-81
2022/07/23 05:29:18;;;;;;;5.55;2.92;;;16.40;99.90;;;;;;5057610;28;20036;-81
2022/07/23 05:31:43;;;;;;;5.57;2.95;;;16.70;99.90;;;;;;5073863;28;20508;-81
2022/07/23 05:34:09;;;;;;;3.03;2.65;;;17.10;99.90;;;;;;5073528;28;20109;-81
2022/07/23 05:36:36;;;;;;;4.22;3.10;;;17.40;99.90;;;;;;5075487;28;20507;-81
2022/07/23 05:39:02;;;;;;;5.68;3.10;;;17.70;99.90;;;;;;5060124;28;20090;-82
2022/07/23 05:41:27;;;;;;;5.80;2.90;;;18.00;99.90;;;;;;5077231;28;20032;-81
2022/07/23 05:43:53;;;;;;;5.10;2.60;;;18.20;99.90;;;;;;5077718;28;20040;-81
2022/07/23 05:46:19;;;;;;;4.75;2.78;;;18.40;99.90;;;;;;5060183;28;20499;-82
2022/07/23 05:48:49;;;;;;;7.90;3.00;;;18.60;99.90;;;;;;5077301;28;20032;-81
2022/07/23 05:51:22;;;;;;;4.68;2.80;;;18.80;99.90;;;;;;5076998;28;20118;-82
2022/07/23 05:53:48;;;;;;;6.55;3.13;;;19.00;99.90;;;;;;5077140;28;20093;-82
2022/07/23 05:56:14;;;;;;;4.10;2.88;;;19.20;99.90;;;;;;5077304;28;20448;-82
2022/07/23 05:58:40;;;;;;;5.90;3.15;;;19.40;99.90;;;;;;5060122;28;20487;-82
2022/07/23 06:01:06;;;;;;;4.07;3.20;;;19.70;99.90;;;;;;5076714;28;20127;-82
2022/07/23 06:03:31;;;;;;;5.10;2.72;;;20.00;99.90;;;;;;5082998;28;20032;-80
2022/07/23 06:05:57;;;;;;;6.43;3.15;;;20.20;99.90;;;;;;5101421;28;20028;-80
2022/07/23 06:08:22;;;;;;;6.13;3.17;;;20.40;99.90;;;;;;5117735;28;20036;-82
2022/07/23 06:10:48;;;;;;;4.85;3.63;;;20.60;99.90;;;;;;5067902;28;20043;-82
2022/07/23 06:13:14;;;;;;;6.03;3.08;;;20.80;99.90;;;;;;5059152;28;20098;-82
2022/07/23 06:15:39;;;;;;;5.53;2.88;;;20.90;99.90;;;;;;5075773;28;20052;-83
2022/07/23 06:18:05;;;;;;;5.78;3.40;;;21.00;99.90;;;;;;5093837;28;20040;-82
2022/07/23 06:20:31;;;;;;;4.18;2.72;;;21.10;99.90;;;;;;5075559;28;20406;-82
2022/07/23 06:22:56;;;;;;;5.50;2.53;;;21.20;99.90;;;;;;5075851;28;20039;-82
2022/07/23 06:25:22;;;;;;;3.92;2.05;;;21.40;99.90;;;;;;5076028;28;20075;-82
2022/07/23 06:27:49;;;;;;;4.05;2.75;;;21.60;99.90;;;;;;5058959;28;20040;-82
2022/07/23 06:30:18;;;;;;;6.32;2.05;;;21.80;99.90;;;;;;5075381;28;20407;-82
2022/07/23 06:32:45;;;;;;;4.65;2.33;;;21.80;99.90;;;;;;5094006;28;20418;-82
2022/07/23 06:35:10;;;;;;;4.82;1.98;;;21.90;99.90;;;;;;5075990;28;20048;-82
2022/07/23 06:37:36;;;;;;;2.53;1.90;;;22.10;99.90;;;;;;5075600;28;20521;-83
2022/07/23 06:40:02;;;;;;;4.55;1.80;;;22.20;99.90;;;;;;5074990;28;20047;-83
2022/07/23 06:42:28;;;;;;;4.38;2.00;;;22.20;99.90;;;;;;5073406;28;20062;-79
2022/07/23 06:44:53;;;;;;;3.40;2.00;;;22.20;99.90;;;;;;5073814;28;20040;-82
2022/07/23 06:47:19;;;;;;;3.05;1.80;;;22.30;99.90;;;;;;5075305;28;20162;-83
2022/07/23 06:49:44;;;;;;;2.88;1.90;;;22.50;99.90;;;;;;5074907;28;20036;-82
2022/07/23 06:52:10;;;;;;;2.28;1.42;;;22.50;99.90;;;;;;5072536;28;20129;-83
2022/07/23 06:54:36;;;;;;;4.60;1.88;;;22.60;99.90;;;;;;5065081;28;20043;-83
2022/07/23 06:57:01;;;;;;;4.75;1.95;;;22.70;99.90;;;;;;5067584;28;20047;-83
2022/07/23 06:59:27;;;;;;;4.30;1.50;;;22.90;99.90;;;;;;5069158;28;20498;-83
2022/07/23 07:01:53;;;;;;;4.13;1.70;;;23.00;99.90;;;;;;5067504;28;20475;-82
2022/07/23 07:04:18;;;;;;;2.35;1.45;;;22.90;99.90;;;;;;5056039;28;20036;-83
2022/07/23 07:06:44;;;;;;;6.13;3.13;;;22.90;99.90;;;;;;5074947;28;20052;-83
2022/07/23 07:09:09;;;;;;;3.08;1.50;;;22.90;99.90;;;;;;5075377;28;20481;-82
2022/07/23 07:11:35;;;;;;;3.40;1.10;;;23.00;99.90;;;;;;5058804;28;20060;-83
2022/07/23 07:14:01;;;;;;;3.80;1.30;;;23.00;99.90;;;;;;5074625;28;20548;-83
2022/07/23 07:16:26;;;;;;;2.33;1.35;;;23.10;99.90;;;;;;5074650;28;20036;-83
2022/07/23 07:18:52;;;;;;;4.70;1.58;;;23.30;99.90;;;;;;5072810;28;20036;-82
2022/07/23 07:21:17;;;;;;;2.17;1.20;;;23.50;99.90;;;;;;5070497;28;20042;-82
2022/07/23 07:23:43;;;;;;;5.93;0.80;;;23.60;99.90;;;;;;5073954;28;20050;-83
2022/07/23 07:26:09;;;;;;;4.10;0.82;;;23.50;99.90;;;;;;5057500;28;20055;-83
2022/07/23 07:28:34;;;;;;;3.17;0.90;;;23.40;99.90;;;;;;5072941;28;20032;-82
2022/07/23 07:31:00;;;;;;;2.70;0.60;;;23.50;99.90;;;;;;5072064;28;20043;-82
2022/07/23 07:33:26;;;;;;;4.47;0.90;;;23.50;99.90;;;;;;5091225;28;20165;-82
2022/07/23 07:35:51;;;;;;;3.00;0.98;;;23.60;99.90;;;;;;5074687;28;20040;-82
2022/07/23 07:38:17;;;;;;;1.70;0.93;;;23.80;99.90;;;;;;5074159;28;20051;-83
2022/07/23 07:40:42;;;;;;;2.45;0.77;;;23.90;99.90;;;;;;5073519;28;20126;-83
2022/07/23 07:43:08;;;;;;;1.63;0.52;;;23.90;99.90;;;;;;5066325;28;20411;-83
2022/07/23 07:45:34;;;;;;;2.50;0.80;;;23.90;99.90;;;;;;5054272;28;20086;-83
2022/07/23 07:47:59;;;;;;;2.60;1.05;;;24.00;99.90;;;;;;5054272;28;20036;-83
2022/07/23 07:50:25;;;;;;;1.40;0.60;;;24.20;99.90;;;;;;5065051;28;20470;-82
2022/07/23 07:52:50;;;;;;;2.50;0.95;;;24.20;99.90;;;;;;5057442;28;20043;-83
2022/07/23 07:55:16;;;;;;;3.60;0.90;;;24.40;99.90;;;;;;5073856;28;20075;-83
2022/07/23 07:57:42;;;;;;;2.38;0.63;;;24.60;99.90;;;;;;5073262;28;20063;-83
2022/07/23 08:00:09;;;;;;;1.48;0.70;;;24.30;99.90;;;;;;5071069;28;20048;-82
2022/07/23 08:02:47;;;;;;;3.38;0.70;;;23.80;99.90;;;;;;5065625;28;20498;-82
2022/07/23 08:05:13;;;;;;;1.02;0.40;;;23.50;99.90;;;;;;5073848;28;20043;-83
2022/07/23 08:07:39;;;;;;;4.22;0.50;;;23.60;99.90;;;;;;5073673;28;20066;-81
2022/07/23 08:10:08;;;;;;;2.20;0.40;;;23.90;99.90;;;;;;5072372;28;20127;-83
2022/07/23 08:12:51;;;;;;;1.75;0.50;;;24.00;98.70;;;;;;5036875;28;20040;-83
2022/07/23 08:15:18;;;;;;;0.70;0.40;;;24.20;98.90;;;;;;5053372;28;20048;-83
2022/07/23 08:17:46;;;;;;;1.00;0.45;;;24.30;98.60;;;;;;5056203;28;20044;-83
2022/07/23 08:20:13;;;;;;;1.60;0.50;;;24.30;97.60;;;;;;5072281;28;20487;-82
2022/07/23 08:22:50;;;;;;;1.75;0.60;;;23.80;98.10;;;;;;5063350;28;20062;-83
2022/07/23 08:25:20;;;;;;;1.35;0.45;;;23.60;97.60;;;;;;5038254;28;20503;-82
2022/07/23 08:27:45;;;;;;;2.22;0.60;;;23.70;97.30;;;;;;5054406;28;20037;-82
2022/07/23 08:30:11;;;;;;;2.65;0.60;;;23.80;98.70;;;;;;5047303;28;20043;-82
2022/07/23 08:32:53;;;;;;;1.45;0.50;;;24.10;97.40;;;;;;5045940;28;20037;-82
2022/07/23 08:35:34;;;;;;;4.82;0.60;;;24.30;95.50;;;;;;5038114;28;20040;-82
2022/07/23 08:38:02;;;;;;;2.55;0.57;;;24.40;97.20;;;;;;5074912;28;20066;-83
2022/07/23 08:40:31;;;;;;;0.88;0.40;;;24.50;97.50;;;;;;5072230;28;20139;-82
2022/07/23 08:42:57;;;;;;;1.48;0.50;;;24.80;94.90;;;;;;5061324;28;20043;-82
2022/07/23 08:45:24;;;;;;;4.13;0.45;;;24.20;96.40;;;;;;5057337;28;20044;-82
2022/07/23 08:47:53;;;;;;;2.50;0.50;;;23.60;97.50;;;;;;5070455;28;20043;-82
2022/07/23 08:50:19;;;;;;;2.17;0.60;;;23.00;98.70;;;;;;5071103;28;20499;-82
2022/07/23 08:52:45;;;;;;;1.13;0.60;;;22.60;99.90;;;;;;5075486;28;20148;-82
2022/07/23 08:55:12;;;;;;;2.40;0.75;;;22.40;99.90;;;;;;5065553;28;20066;-82
2022/07/23 08:57:37;;;;;;;1.27;0.73;;;22.30;99.90;;;;;;5056126;28;20059;-82
2022/07/23 09:00:06;;;;;;;2.78;0.95;;;22.40;99.90;;;;;;5055751;28;20064;-82
2022/07/23 09:02:31;;;;;;;1.42;0.73;;;22.60;99.90;;;;;;5054011;28;20044;-83
2022/07/23 09:04:57;;;;;;;0.73;0.45;;;22.70;99.90;;;;;;5053429;28;20037;-82
2022/07/23 09:07:22;;;;;;;4.03;0.80;;;23.10;99.90;;;;;;5053001;28;20047;-82
2022/07/23 09:10:08;;;;;;;3.50;0.40;;;23.00;99.90;;;;;;5062391;28;20032;-82
2022/07/23 09:12:34;;;;;;;1.85;0.52;;;22.90;99.90;;;;;;5068829;28;20055;-81
2022/07/23 09:15:05;;;;;;;2.45;0.75;;;22.50;99.90;;;;;;5077170;28;20032;-82
2022/07/23 09:17:38;;;;;;;1.70;0.50;;;22.00;99.90;;;;;;5061569;28;20452;-81
2022/07/23 09:20:10;;;;;;;0.88;0.50;;;21.60;99.90;;;;;;5076096;28;20478;-81
2022/07/23 09:22:36;;;;;;;1.30;0.50;;;21.30;99.90;;;;;;5064385;28;20084;-81
2022/07/23 09:25:19;;;;;;;1.80;0.60;;;20.90;99.90;;;;;;5101278;28;20040;-81
2022/07/23 09:27:57;;;;;;;1.92;0.52;;;20.90;99.90;;;;;;5058648;28;20043;-80
2022/07/23 09:30:27;;;;;;;2.70;0.43;;;21.20;99.90;;;;;;5076834;28;20044;-82
2022/07/23 09:33:09;;;;;;;2.50;0.60;;;21.70;99.90;;;;;;5072361;28;20487;-82
2022/07/23 09:35:54;;;;;;;1.70;0.80;;;22.20;99.90;;;;;;5041820;28;20055;-80
2022/07/23 09:38:23;;;;;;;1.65;0.60;;;22.70;99.90;;;;;;5059130;28;20119;-80
2022/07/23 09:41:18;;;;;;;1.33;0.50;;;23.00;96.30;;;;;;5041292;28;20530;-81
2022/07/23 09:43:44;;;;;;;0.68;0.40;;;23.40;96.00;;;;;;5036570;28;20450;-82
2022/07/23 09:46:27;;;;;;;0.70;0.45;;;23.60;99.20;;;;;;5057735;28;20033;-82
2022/07/23 09:48:56;;;;;;;1.48;0.47;;;23.80;92.50;;;;;;5076215;28;20128;-82
2022/07/23 09:53:54;;;;;;;3.92;0.60;;;23.60;96.50;;;;;;5057346;28;20056;-83
2022/07/23 09:56:20;;;;;;;2.65;0.70;;;23.60;97.80;;;;;;5056697;28;20047;-82
2022/07/23 09:58:50;;;;;;;2.08;0.70;;;23.80;97.40;;;;;;5066371;28;20032;-82
2022/07/23 10:01:16;;;;;;;2.38;0.50;;;23.90;92.70;;;;;;5072685;28;20090;-83
2022/07/23 10:03:42;;;;;;;0.68;0.55;;;23.70;95.80;;;;;;5056335;28;20029;-83
2022/07/23 10:06:13;;;;;;;0.60;0.50;;;23.50;96.60;;;;;;5066068;28;20060;-83
2022/07/23 10:08:41;;;;;;;1.90;0.50;;;23.70;95.40;;;;;;5067666;28;20032;-82
2022/07/23 10:11:09;;;;;;;1.65;0.60;;;24.10;94.50;;;;;;5098808;28;20122;-83
2022/07/23 10:14:17;;;;;;;0.70;0.57;;;24.40;94.20;;;;;;5076798;28;20497;-84
2022/07/23 10:16:24;;;;;;;2.00;0.77;;;24.50;92.60;;;;;;5068024;28;20048;-84
2022/07/23 10:18:50;;;;;;;1.13;0.40;;;24.60;91.80;;;;;;5075340;28;20040;-83
2022/07/23 10:21:39;;;;;;;3.00;0.50;;;24.50;92.60;;;;;;5075304;28;20089;-83
2022/07/23 10:24:31;;;;;;;1.15;0.47;;;24.40;90.10;;;;;;5074971;28;20105;-82
2022/07/23 10:27:34;;;;;;;1.13;0.70;;;24.20;91.20;;;;;;5074517;28;20036;-82
2022/07/23 10:30:16;;;;;;;3.63;0.90;;;24.20;92.90;;;;;;5070099;28;20044;-83
2022/07/23 10:33:10;;;;;;;2.30;0.63;;;24.00;90.90;;;;;;5063418;28;20132;-80
2022/07/23 10:36:09;;;;;;;1.75;0.77;;;23.90;90.10;;;;;;5098147;28;20048;-80
2022/07/23 10:38:40;;;;;;;1.48;0.70;;;24.30;90.10;;;;;;5112358;28;20538;-81
2022/07/23 10:41:06;;;;;;;;;;;24.40;91.60;;;;;;5097430;28;20096;-83
2022/07/23 10:43:32;;;;;;;1.38;0.82;;;24.50;90.90;;;;;;5058625;28;20012;-82
2022/07/23 10:46:51;;;;;;;0.85;0.55;;;24.60;93.30;;;;;;5075426;28;20048;-83
2022/07/23 10:49:30;;;;;;;1.90;0.68;;;25.10;78.40;;;;;;5074203;28;20410;-82
2022/07/23 10:52:14;;;;;;;1.67;1.00;;;25.20;86.20;;;;;;5074946;28;20770;-82
2022/07/23 10:54:55;;;;;;;3.03;1.10;;;25.10;90.10;;;;;;5073188;28;20123;-82
2022/07/23 10:57:26;;;;;;;0.70;0.70;;;25.20;85.50;;;;;;5074685;28;20082;-82
2022/07/23 11:02:33;;;;;;;2.65;0.90;;;24.80;81.30;;;;;;5075984;28;20040;-82
2022/07/23 11:05:08;;;;;;;1.15;0.80;;;24.50;82.70;;;;;;5075607;28;20044;-82
2022/07/23 11:07:34;;;;;;;1.48;1.00;;;24.50;90.70;;;;;;5090677;28;20829;-82
2022/07/23 11:10:00;;;;;;;1.05;0.90;;;24.40;91.20;;;;;;5069003;28;20051;-82
2022/07/23 11:12:29;;;;;;;2.25;1.02;;;24.50;90.30;;;;;;5074820;28;20028;-82
2022/07/23 11:15:11;;;;;;;1.05;0.75;;;24.50;88.90;;;;;;5073215;28;20115;-82
2022/07/23 11:17:57;;;;;;;1.90;0.90;;;24.30;87.50;;;;;;5074995;28;20032;-81
2022/07/23 11:20:23;;;;;;;3.22;0.95;;;24.20;90.40;;;;;;5057611;28;20040;-83
2022/07/23 11:22:52;;;;;;;1.25;0.65;;;24.20;91.60;;;;;;5074643;28;20036;-83
2022/07/23 11:25:29;;;;;;;2.88;0.70;;;24.00;91.60;;;;;;5073970;28;20032;-82
2022/07/23 11:28:07;;;;;;;1.50;0.82;;;23.90;93.00;;;;;;5074020;28;20043;-83
2022/07/23 11:30:33;;;;;;;2.28;0.90;;;24.00;93.00;;;;;;5074379;28;20075;-82
2022/07/23 11:33:08;;;;;;;1.20;0.85;;;23.80;92.90;;;;;;5049971;28;20503;-83
2022/07/23 11:35:39;;;;;;;2.83;0.85;;;23.80;93.80;;;;;;5074326;28;20051;-82
2022/07/23 11:38:15;;;;;;;1.42;0.90;;;23.70;93.60;;;;;;5060538;28;20518;-83
2022/07/23 11:40:43;;;;;;;2.92;1.02;;;23.70;93.90;;;;;;5057898;28;20075;-83
2022/07/23 11:43:10;;;;;;;1.02;0.80;;;23.60;95.10;;;;;;5074383;28;20040;-83
2022/07/23 11:45:44;;;;;;;3.17;0.93;;;23.50;95.20;;;;;;5073896;28;20490;-83
2022/07/23 11:48:17;;;;;;;1.98;1.05;;;23.40;96.10;;;;;;5073471;28;20085;-82
2022/07/23 11:50:43;;;;;;;1.42;1.00;;;23.50;96.40;;;;;;5073057;28;20065;-82
2022/07/23 11:53:08;;;;;;;1.50;0.90;;;23.80;95.60;;;;;;5057188;28;20044;-83
2022/07/23 11:55:34;;;;;;;3.90;1.33;;;24.20;94.20;;;;;;5074574;28;20406;-83
2022/07/23 11:58:00;;;;;;;2.22;1.00;;;24.60;93.10;;;;;;5071744;28;20044;-83
2022/07/23 12:00:29;;;;;;;2.72;1.10;;;24.80;92.60;;;;;;5074151;28;20044;-85
2022/07/23 12:03:00;;;;;;;1.83;1.20;;;25.00;91.80;;;;;;5065209;28;20044;-85
2022/07/23 12:05:36;;;;;;;2.63;1.15;;;25.20;92.20;;;;;;5073823;28;20522;-85
2022/07/23 12:08:07;;;;;;;2.03;1.05;;;25.20;81.00;;;;;;5073259;28;20055;-84
2022/07/23 12:10:42;;;;;;;2.40;1.13;;;25.30;90.40;;;;;;5073321;28;20457;-84
2022/07/23 12:13:14;;;;;;;1.52;1.10;;;25.30;83.00;;;;;;5072697;28;20293;-83
2022/07/23 12:15:48;;;;;;;2.38;1.10;;;25.30;87.30;;;;;;5066540;28;20048;-83
2022/07/23 12:18:21;;;;;;;3.25;0.90;;;25.50;87.30;;;;;;5072746;28;20048;-82
2022/07/23 12:20:49;;;;;;;2.65;1.38;;;25.70;90.40;;;;;;5089579;28;20185;-85
2022/07/23 12:23:17;;;;;;;0.70;0.70;;;25.60;90.40;;;;;;5071890;28;20240;-84
2022/07/23 12:25:44;;;;;;;2.67;1.25;;;25.30;87.00;;;;;;5072530;28;20040;-84
2022/07/23 12:28:18;;;;;;;1.40;0.90;;;25.30;91.30;;;;;;5073105;28;20043;-85
2022/07/23 12:30:50;;;;;;;2.00;1.05;;;25.30;91.40;;;;;;5071896;28;20048;-84
2022/07/23 12:33:24;;;;;;;1.50;1.08;;;25.40;91.70;;;;;;5047485;28;20376;-84
2022/07/23 12:35:50;;;;;;;3.22;1.27;;;25.50;91.30;;;;;;5068930;28;20031;-85
2022/07/23 12:38:19;;;;;;;2.53;1.77;;;25.70;87.70;;;;;;5066512;28;20059;-84
2022/07/23 12:40:55;;;;;;;5.07;2.45;;;25.70;84.60;;;;;;5071945;28;20044;-84
2022/07/23 12:43:22;;;;;;;1.63;1.10;;;25.40;85.10;;;;;;5073439;28;20165;-82
2022/07/23 12:45:51;;;;;;;3.15;1.30;;;25.20;89.80;;;;;;5056431;28;20036;-81
2022/07/23 12:48:26;;;;;;;3.08;1.58;;;25.40;91.50;;;;;;5071872;28;20036;-81
2022/07/23 12:50:59;;;;;;;1.17;1.00;;;25.60;91.00;;;;;;5056483;28;20043;-82
2022/07/23 12:53:41;;;;;;;3.72;1.70;;;25.70;85.20;;;;;;5052910;28;20456;-83
2022/07/23 12:56:19;;;;;;;2.08;1.00;;;25.60;90.20;;;;;;5072453;28;20559;-82
2022/07/23 12:58:51;;;;;;;4.15;1.05;;;25.60;90.30;;;;;;5053180;28;20066;-81